North Platte, Nebraska
Current Conditions -  °F | °C
As of 1:53 PM on Wednesday 17 Dec 2014 (Local Time) from KLBF Reporting Station
Haze Haze  
Wind Chill: -10°   Ceiling: 500
Heat Index: -6°   Visibility: 6mi
Dew Point: -7°   Wind: 7mph
Humidity: 92%   Direction: 150°SSE
Pressure: 30.1"   Gusts: NA
Location:  41.14°N, 100.76°W
Report Text: KLBF 171953Z AUTO 15006KT 6SM BR OVC005 M06/M07 A3010 RMK AO2 SLP228 T10561067
Loading
Personal Weather Stations






























Interactive Weather Map New forecast layout! Learn more

10-Day Weather Forecast

Advertisements
Track Severe Weather on mobile